Time;durP1;ratioP1;P1;durP2;ratioP2;P2;SDS_P1;SDS_P2;PMS_P1;PMS_P2;Temp;Humidity;BMP_temperature;BMP_pressure;BME280_temperature;BME280_humidity;BME280_pressure;Samples;Min_cycle;Max_cycle;Signal;HPM_P1;HPM_P2
2022/07/29 00:00:48;;;;;;;1.67;0.73;;;;;;;;;;4563378;28;20039;-58
2022/07/29 00:02:59;;;;;;;1.23;0.73;;;;;;;;;;4563077;28;20060;-58
2022/07/29 00:05:13;;;;;;;0.80;0.70;;;;;;;;;;4563516;28;20118;-57
2022/07/29 00:07:24;;;;;;;2.05;0.90;;;;;;;;;;4562580;27;20229;-58
2022/07/29 00:09:34;;;;;;;1.35;0.90;;;;;;;;;;4563730;28;20246;-58
2022/07/29 00:11:44;;;;;;;2.10;0.90;;;;;;;;;;4563519;28;20032;-57
2022/07/29 00:13:55;;;;;;;1.58;0.80;;;;;;;;;;4565457;28;20391;-58
2022/07/29 00:16:05;;;;;;;1.20;0.80;;;;;;;;;;4563679;28;20036;-58
2022/07/29 00:18:16;;;;;;;1.13;0.80;;;;;;;;;;4546696;28;20052;-58
2022/07/29 00:20:27;;;;;;;1.55;0.90;;;;;;;;;;4563653;28;20239;-58
2022/07/29 00:22:38;;;;;;;0.88;0.70;;;;;;;;;;4565164;28;20521;-58
2022/07/29 00:24:49;;;;;;;1.95;0.77;;;;;;;;;;4564370;28;20039;-57
2022/07/29 00:26:59;;;;;;;1.38;0.80;;;;;;;;;;4563442;28;20907;-58
2022/07/29 00:29:09;;;;;;;1.45;0.70;;;;;;;;;;4565739;28;20034;-58
2022/07/29 00:31:20;;;;;;;1.13;0.70;;;;;;;;;;4564014;28;20675;-58
2022/07/29 00:33:30;;;;;;;1.10;0.85;;;;;;;;;;4532011;28;20045;-57
2022/07/29 00:35:44;;;;;;;0.60;0.60;;;;;;;;;;4551791;28;20063;-58
2022/07/29 00:37:54;;;;;;;1.45;0.80;;;;;;;;;;4546691;28;20024;-58
2022/07/29 00:40:06;;;;;;;1.55;0.80;;;;;;;;;;4545343;28;20041;-57
2022/07/29 00:42:16;;;;;;;1.40;0.90;;;;;;;;;;4554462;28;20115;-57
2022/07/29 00:44:27;;;;;;;0.98;0.80;;;;;;;;;;4548949;28;20036;-58
2022/07/29 00:46:37;;;;;;;1.45;0.80;;;;;;;;;;4563977;28;20619;-58
2022/07/29 00:48:47;;;;;;;1.10;0.60;;;;;;;;;;4564775;28;20040;-58
2022/07/29 00:50:59;;;;;;;1.00;0.80;;;;;;;;;;4563525;28;20032;-57
2022/07/29 00:53:11;;;;;;;0.95;0.60;;;;;;;;;;4544385;28;20029;-57
2022/07/29 00:55:22;;;;;;;1.52;0.70;;;;;;;;;;4563195;28;20086;-57
2022/07/29 00:57:33;;;;;;;2.08;1.08;;;;;;;;;;4546719;28;20079;-58
2022/07/29 00:59:43;;;;;;;1.00;0.80;;;;;;;;;;4562636;28;20029;-58
2022/07/29 01:01:54;;;;;;;1.20;0.80;;;;;;;;;;4562930;28;20503;-58
2022/07/29 01:04:06;;;;;;;1.55;0.93;;;;;;;;;;4563834;28;20036;-57
2022/07/29 01:06:18;;;;;;;1.60;0.75;;;;;;;;;;4563273;28;20032;-58
2022/07/29 01:08:28;;;;;;;1.48;0.60;;;;;;;;;;4546850;28;20032;-58
2022/07/29 01:10:40;;;;;;;1.17;0.80;;;;;;;;;;4564606;28;20568;-58
2022/07/29 01:12:52;;;;;;;1.73;0.90;;;;;;;;;;4548797;28;20033;-58
2022/07/29 01:15:04;;;;;;;1.60;0.90;;;;;;;;;;4545014;28;20621;-56
2022/07/29 01:17:21;;;;;;;1.00;0.80;;;;;;;;;;4564724;28;20036;-58
2022/07/29 01:19:41;;;;;;;1.17;0.70;;;;;;;;;;4546877;28;20626;-58
2022/07/29 01:21:55;;;;;;;1.30;0.75;;;;;;;;;;4568329;28;20032;-58
2022/07/29 01:24:20;;;;;;;1.10;0.68;;;;;;;;;;4550307;28;20037;-58
2022/07/29 01:26:36;;;;;;;1.00;0.70;;;;;;;;;;4565802;28;20064;-58
2022/07/29 01:29:23;;;;;;;1.23;0.70;;;;;;;;;;4547505;28;20028;-58
2022/07/29 01:31:56;;;;;;;1.23;0.80;;;;;;;;;;4539979;28;20721;-58
2022/07/29 01:34:08;;;;;;;1.52;0.70;;;;;;;;;;4561527;28;20051;-58
2022/07/29 01:36:31;;;;;;;2.03;0.80;;;;;;;;;;4564205;28;20040;-58
2022/07/29 01:38:42;;;;;;;2.13;0.75;;;;;;;;;;4547172;28;20564;-58
2022/07/29 01:40:59;;;;;;;1.00;0.70;;;;;;;;;;4566397;28;20626;-58
2022/07/29 01:43:12;;;;;;;0.80;0.70;;;;;;;;;;4548131;28;20037;-58
2022/07/29 01:45:25;;;;;;;1.15;0.68;;;;;;;;;;4550279;28;20033;-59
2022/07/29 01:47:43;;;;;;;1.67;0.85;;;;;;;;;;4566647;28;20803;-59
2022/07/29 01:49:55;;;;;;;1.05;0.70;;;;;;;;;;4553783;28;20028;-59
2022/07/29 01:52:08;;;;;;;1.33;1.02;;;;;;;;;;4552384;28;20059;-58
2022/07/29 01:54:43;;;;;;;1.20;0.70;;;;;;;;;;4551639;28;20025;-58
2022/07/29 01:56:56;;;;;;;0.73;0.73;;;;;;;;;;4541108;28;20079;-58
2022/07/29 01:59:08;;;;;;;2.10;0.80;;;;;;;;;;4549274;28;20055;-58
2022/07/29 02:01:18;;;;;;;1.38;0.80;;;;;;;;;;4565392;28;20087;-58
2022/07/29 02:03:30;;;;;;;1.77;0.82;;;;;;;;;;4548301;28;20029;-58
2022/07/29 02:05:42;;;;;;;0.63;0.63;;;;;;;;;;4553249;28;20033;-58
2022/07/29 02:07:54;;;;;;;1.88;0.98;;;;;;;;;;4552585;28;21247;-58
2022/07/29 02:10:05;;;;;;;1.00;0.63;;;;;;;;;;4557946;28;20031;-58
2022/07/29 02:12:20;;;;;;;1.10;0.80;;;;;;;;;;4555975;28;20037;-58
2022/07/29 02:14:34;;;;;;;1.00;0.75;;;;;;;;;;4551018;28;20896;-58
2022/07/29 02:16:46;;;;;;;1.23;0.63;;;;;;;;;;4551412;28;20036;-58
2022/07/29 02:18:58;;;;;;;2.35;0.80;;;;;;;;;;4566955;28;20033;-58
2022/07/29 02:21:09;;;;;;;1.75;0.80;;;;;;;;;;4565414;28;20028;-58
2022/07/29 02:23:23;;;;;;;0.90;0.75;;;;;;;;;;4549803;28;20032;-58
2022/07/29 02:25:34;;;;;;;0.80;0.68;;;;;;;;;;4565402;28;20127;-58
2022/07/29 02:27:46;;;;;;;1.75;0.80;;;;;;;;;;4548180;28;20040;-57
2022/07/29 02:29:58;;;;;;;1.20;0.90;;;;;;;;;;4546784;28;20041;-58
2022/07/29 02:32:10;;;;;;;0.93;0.60;;;;;;;;;;4566561;28;20033;-58
2022/07/29 02:34:21;;;;;;;1.35;0.80;;;;;;;;;;4547891;28;20597;-58
2022/07/29 02:36:32;;;;;;;1.33;0.82;;;;;;;;;;4557090;28;20048;-58
2022/07/29 02:39:04;;;;;;;1.08;0.70;;;;;;;;;;4551342;28;20654;-58
2022/07/29 02:41:17;;;;;;;2.22;0.70;;;;;;;;;;4515046;28;20810;-58
2022/07/29 02:43:29;;;;;;;0.98;0.77;;;;;;;;;;4494367;28;20643;-58
2022/07/29 02:45:39;;;;;;;1.73;0.77;;;;;;;;;;4496393;28;20050;-58
2022/07/29 02:47:50;;;;;;;0.90;0.70;;;;;;;;;;4515899;28;20109;-58
2022/07/29 02:50:08;;;;;;;1.23;0.88;;;;;;;;;;4498941;28;20046;-58
2022/07/29 02:52:20;;;;;;;0.82;0.70;;;;;;;;;;4495652;28;20044;-58
2022/07/29 02:54:39;;;;;;;1.10;0.70;;;;;;;;;;4514991;28;20076;-58
2022/07/29 02:56:54;;;;;;;1.23;0.70;;;;;;;;;;4515754;28;20551;-58
2022/07/29 02:59:09;;;;;;;1.08;0.50;;;;;;;;;;4514804;28;20107;-57
2022/07/29 03:01:21;;;;;;;0.82;0.60;;;;;;;;;;4515366;28;20651;-58
2022/07/29 03:03:37;;;;;;;1.50;0.80;;;;;;;;;;4498866;28;20038;-58
2022/07/29 03:05:47;;;;;;;1.30;0.75;;;;;;;;;;4515022;28;20038;-57
2022/07/29 03:08:04;;;;;;;0.95;0.60;;;;;;;;;;4497538;28;20058;-57
2022/07/29 03:10:14;;;;;;;1.80;0.73;;;;;;;;;;4514762;28;20725;-57
2022/07/29 03:12:25;;;;;;;0.93;0.70;;;;;;;;;;4513293;28;20075;-60
2022/07/29 03:14:37;;;;;;;1.75;0.80;;;;;;;;;;4497497;28;20026;-58
2022/07/29 03:16:48;;;;;;;2.05;0.85;;;;;;;;;;4501668;28;20037;-58
2022/07/29 03:18:59;;;;;;;1.23;0.70;;;;;;;;;;4535298;28;21078;-58
2022/07/29 03:21:09;;;;;;;1.50;0.73;;;;;;;;;;4564942;28;20062;-58
2022/07/29 03:23:22;;;;;;;1.33;0.80;;;;;;;;;;4546328;28;20027;-62
2022/07/29 03:25:32;;;;;;;0.63;0.60;;;;;;;;;;4564126;28;20140;-62
2022/07/29 03:27:44;;;;;;;2.03;0.68;;;;;;;;;;4552280;28;20103;-58
2022/07/29 03:29:54;;;;;;;0.95;0.60;;;;;;;;;;4554770;28;20036;-58
2022/07/29 03:32:05;;;;;;;1.13;0.70;;;;;;;;;;4552936;28;20040;-59
2022/07/29 03:34:16;;;;;;;1.10;0.80;;;;;;;;;;4547634;28;20025;-58
2022/07/29 03:36:26;;;;;;;1.13;0.70;;;;;;;;;;4565992;28;20040;-58
2022/07/29 03:38:37;;;;;;;1.13;0.80;;;;;;;;;;4565381;28;20519;-58
2022/07/29 03:40:58;;;;;;;0.85;0.70;;;;;;;;;;4548651;28;20127;-58
2022/07/29 03:43:09;;;;;;;1.60;0.70;;;;;;;;;;4551458;28;20037;-58
2022/07/29 03:45:21;;;;;;;1.42;0.75;;;;;;;;;;4548031;28;20040;-58
2022/07/29 03:47:33;;;;;;;1.20;0.70;;;;;;;;;;4556799;28;20078;-57
2022/07/29 03:49:46;;;;;;;1.08;0.75;;;;;;;;;;4557815;28;20048;-58
2022/07/29 03:51:57;;;;;;;1.60;0.82;;;;;;;;;;4556163;28;20035;-59
2022/07/29 03:54:07;;;;;;;1.35;0.70;;;;;;;;;;4546893;28;20130;-58
2022/07/29 03:56:21;;;;;;;1.23;0.68;;;;;;;;;;4565543;28;20072;-58
2022/07/29 03:58:32;;;;;;;1.75;0.80;;;;;;;;;;4550710;28;20020;-58
2022/07/29 04:00:43;;;;;;;0.98;0.75;;;;;;;;;;4551162;28;20041;-58
2022/07/29 04:02:54;;;;;;;1.25;0.80;;;;;;;;;;4547268;28;20127;-58
2022/07/29 04:05:04;;;;;;;0.88;0.73;;;;;;;;;;4565274;28;20031;-58
2022/07/29 04:07:15;;;;;;;0.82;0.60;;;;;;;;;;4563838;28;20202;-58
2022/07/29 04:09:26;;;;;;;1.80;0.82;;;;;;;;;;4566189;28;20046;-58
2022/07/29 04:11:38;;;;;;;1.80;0.90;;;;;;;;;;4539960;28;20036;-58
2022/07/29 04:13:48;;;;;;;1.35;0.75;;;;;;;;;;4564390;28;21328;-58
2022/07/29 04:15:59;;;;;;;0.93;0.65;;;;;;;;;;4565848;28;20032;-58
2022/07/29 04:18:10;;;;;;;0.90;0.80;;;;;;;;;;4566645;28;20036;-58
2022/07/29 04:20:20;;;;;;;1.45;0.95;;;;;;;;;;4565523;28;20034;-58
2022/07/29 04:22:30;;;;;;;1.15;0.82;;;;;;;;;;4564478;28;20119;-58
2022/07/29 04:24:41;;;;;;;2.22;0.70;;;;;;;;;;4565343;28;20125;-58
2022/07/29 04:26:52;;;;;;;0.80;0.70;;;;;;;;;;4565222;28;20059;-58
2022/07/29 04:29:02;;;;;;;2.55;1.00;;;;;;;;;;4564614;28;20032;-58
2022/07/29 04:31:13;;;;;;;1.02;0.70;;;;;;;;;;4564105;28;20028;-57
2022/07/29 04:33:23;;;;;;;0.80;0.70;;;;;;;;;;4566134;28;20043;-58
2022/07/29 04:35:36;;;;;;;1.30;0.98;;;;;;;;;;4563251;28;20469;-58
2022/07/29 04:37:47;;;;;;;1.55;0.70;;;;;;;;;;4564401;28;20052;-58
2022/07/29 04:39:57;;;;;;;1.30;0.60;;;;;;;;;;4546821;28;20112;-58
2022/07/29 04:42:07;;;;;;;0.98;0.75;;;;;;;;;;4564679;28;20542;-58
2022/07/29 04:44:18;;;;;;;0.68;0.60;;;;;;;;;;4565674;28;20035;-57
2022/07/29 04:46:29;;;;;;;1.10;0.70;;;;;;;;;;4564012;28;20039;-59
2022/07/29 04:48:39;;;;;;;0.88;0.70;;;;;;;;;;4565326;28;20044;-58
2022/07/29 04:50:50;;;;;;;1.33;0.68;;;;;;;;;;4564587;28;20170;-58
2022/07/29 04:53:00;;;;;;;1.13;0.80;;;;;;;;;;4562376;28;20064;-58
2022/07/29 04:55:10;;;;;;;1.13;0.73;;;;;;;;;;4564781;28;20032;-58
2022/07/29 04:57:21;;;;;;;1.42;0.75;;;;;;;;;;4563227;28;20586;-57
2022/07/29 04:59:31;;;;;;;0.80;0.70;;;;;;;;;;4563863;28;20574;-58
2022/07/29 05:01:42;;;;;;;1.40;0.85;;;;;;;;;;4564295;28;20039;-58
2022/07/29 05:03:52;;;;;;;1.15;0.90;;;;;;;;;;4564084;28;20060;-58
2022/07/29 05:06:02;;;;;;;1.15;0.70;;;;;;;;;;4562582;28;20067;-58
2022/07/29 05:08:13;;;;;;;1.25;0.75;;;;;;;;;;4548333;28;20132;-58
2022/07/29 05:10:24;;;;;;;1.08;0.70;;;;;;;;;;4563355;28;20043;-58
2022/07/29 05:12:34;;;;;;;0.95;0.70;;;;;;;;;;4563844;28;20029;-58
2022/07/29 05:14:45;;;;;;;0.80;0.70;;;;;;;;;;4563331;28;20028;-58
2022/07/29 05:16:56;;;;;;;1.15;0.70;;;;;;;;;;4564193;28;20040;-58
2022/07/29 05:19:07;;;;;;;1.23;0.73;;;;;;;;;;4563719;28;21268;-58
2022/07/29 05:21:18;;;;;;;0.98;0.70;;;;;;;;;;4564829;28;20036;-57
2022/07/29 05:23:28;;;;;;;1.30;0.70;;;;;;;;;;4564397;28;20082;-59
2022/07/29 05:25:39;;;;;;;2.00;0.90;;;;;;;;;;4564288;28;20601;-58
2022/07/29 05:27:49;;;;;;;1.10;0.70;;;;;;;;;;4563330;28;20040;-58
2022/07/29 05:30:00;;;;;;;1.35;0.70;;;;;;;;;;4563025;28;20522;-58
2022/07/29 05:32:10;;;;;;;1.83;0.70;;;;;;;;;;4564747;28;20071;-58
2022/07/29 05:34:21;;;;;;;0.98;0.70;;;;;;;;;;4550079;28;20029;-58
2022/07/29 05:36:31;;;;;;;0.70;0.60;;;;;;;;;;4563942;28;20028;-57
2022/07/29 05:38:42;;;;;;;1.23;0.80;;;;;;;;;;4563208;28;20048;-58
2022/07/29 05:40:52;;;;;;;0.80;0.63;;;;;;;;;;4564445;28;20040;-58
2022/07/29 05:43:02;;;;;;;2.15;1.00;;;;;;;;;;4562203;28;20111;-58
2022/07/29 05:45:13;;;;;;;1.00;0.70;;;;;;;;;;4564224;28;20107;-58
2022/07/29 05:47:24;;;;;;;0.93;0.70;;;;;;;;;;4563093;28;20132;-58
2022/07/29 05:49:34;;;;;;;0.93;0.63;;;;;;;;;;4545540;28;20061;-58
2022/07/29 05:51:45;;;;;;;1.17;0.80;;;;;;;;;;4561786;28;20039;-58
2022/07/29 05:53:55;;;;;;;1.67;0.80;;;;;;;;;;4563377;28;20032;-58
2022/07/29 05:56:07;;;;;;;1.48;0.70;;;;;;;;;;4563182;28;20396;-58
2022/07/29 05:58:17;;;;;;;0.93;0.70;;;;;;;;;;4550621;28;20025;-57
2022/07/29 06:00:28;;;;;;;1.40;0.90;;;;;;;;;;4563421;28;20320;-59
2022/07/29 06:02:38;;;;;;;0.95;0.80;;;;;;;;;;4545709;28;20056;-58
2022/07/29 06:04:49;;;;;;;1.20;0.75;;;;;;;;;;4547874;28;20076;-58
2022/07/29 06:06:59;;;;;;;0.90;0.80;;;;;;;;;;4565637;28;20045;-58
2022/07/29 06:09:10;;;;;;;2.00;0.90;;;;;;;;;;4565319;28;20158;-57
2022/07/29 06:11:20;;;;;;;1.23;0.65;;;;;;;;;;4568086;28;20035;-58
2022/07/29 06:13:32;;;;;;;1.23;0.80;;;;;;;;;;4565252;28;20045;-58
2022/07/29 06:15:42;;;;;;;1.20;0.80;;;;;;;;;;4551290;28;20028;-58
2022/07/29 06:17:53;;;;;;;0.80;0.70;;;;;;;;;;4566572;28;20036;-58
2022/07/29 06:20:04;;;;;;;2.05;0.70;;;;;;;;;;4567010;28;20105;-58
2022/07/29 06:22:16;;;;;;;1.20;0.70;;;;;;;;;;4567098;28;20137;-57
2022/07/29 06:24:26;;;;;;;1.02;0.80;;;;;;;;;;4566433;28;20025;-58
2022/07/29 06:26:37;;;;;;;0.90;0.70;;;;;;;;;;4564710;28;20515;-58
2022/07/29 06:28:48;;;;;;;1.40;0.70;;;;;;;;;;4549602;28;20029;-58
2022/07/29 06:30:59;;;;;;;1.05;0.70;;;;;;;;;;4566395;28;20032;-58
2022/07/29 06:33:16;;;;;;;1.25;0.68;;;;;;;;;;4567122;28;20048;-57
2022/07/29 06:35:26;;;;;;;;;;;;;;;;;;4565245;28;20772;-58
2022/07/29 06:37:36;;;;;;;0.90;0.77;;;;;;;;;;4566295;28;20121;-57
2022/07/29 06:39:47;;;;;;;0.85;0.70;;;;;;;;;;4565322;28;20399;-58
2022/07/29 06:41:57;;;;;;;0.95;0.70;;;;;;;;;;4552577;28;20037;-58
2022/07/29 06:44:09;;;;;;;1.30;0.80;;;;;;;;;;4565173;28;20020;-59
2022/07/29 06:46:20;;;;;;;2.20;0.70;;;;;;;;;;4566927;28;20042;-59
2022/07/29 06:48:32;;;;;;;0.90;0.70;;;;;;;;;;4567541;28;20415;-59
2022/07/29 06:50:42;;;;;;;0.90;0.80;;;;;;;;;;4565005;28;20936;-58
2022/07/29 06:52:53;;;;;;;0.52;0.50;;;;;;;;;;4566024;28;20067;-58
2022/07/29 06:55:03;;;;;;;1.13;0.70;;;;;;;;;;4549409;28;20037;-58
2022/07/29 06:57:14;;;;;;;1.02;0.70;;;;;;;;;;4565229;28;20139;-58
2022/07/29 06:59:24;;;;;;;1.02;0.70;;;;;;;;;;4566284;28;20657;-59
2022/07/29 07:01:39;;;;;;;1.20;0.70;;;;;;;;;;4566260;28;20028;-58
2022/07/29 07:03:50;;;;;;;0.70;0.70;;;;;;;;;;4566509;28;20044;-59
2022/07/29 07:06:01;;;;;;;1.08;0.70;;;;;;;;;;4557152;28;20037;-58
2022/07/29 07:08:12;;;;;;;2.08;0.80;;;;;;;;;;4567796;28;20044;-58
2022/07/29 07:10:23;;;;;;;1.08;0.60;;;;;;;;;;4566298;28;20040;-58
2022/07/29 07:12:33;;;;;;;1.17;0.70;;;;;;;;;;4546401;28;20029;-58
2022/07/29 07:14:44;;;;;;;1.08;0.80;;;;;;;;;;4552267;28;20040;-58
2022/07/29 07:16:54;;;;;;;1.10;0.80;;;;;;;;;;4563979;28;20036;-58
2022/07/29 07:19:04;;;;;;;1.10;0.80;;;;;;;;;;4563006;28;20481;-58
2022/07/29 07:21:15;;;;;;;0.80;0.73;;;;;;;;;;4555220;28;20397;-58
2022/07/29 07:23:25;;;;;;;1.63;0.90;;;;;;;;;;4564367;28;20120;-58
2022/07/29 07:25:36;;;;;;;1.10;0.65;;;;;;;;;;4564500;28;20028;-58
2022/07/29 07:27:47;;;;;;;1.75;0.77;;;;;;;;;;4566435;28;20087;-58
2022/07/29 07:29:57;;;;;;;0.98;0.70;;;;;;;;;;4565260;28;20040;-59
2022/07/29 07:32:08;;;;;;;1.10;0.80;;;;;;;;;;4563853;28;20078;-56
2022/07/29 07:34:18;;;;;;;1.30;0.70;;;;;;;;;;4564499;28;20044;-58
2022/07/29 07:36:29;;;;;;;0.90;0.70;;;;;;;;;;4563987;28;20033;-58
2022/07/29 07:38:39;;;;;;;1.40;0.60;;;;;;;;;;4564437;28;20459;-58
2022/07/29 07:40:50;;;;;;;2.13;0.70;;;;;;;;;;4564669;28;20032;-59
2022/07/29 07:43:00;;;;;;;1.55;0.75;;;;;;;;;;4565263;28;20081;-58
2022/07/29 07:45:11;;;;;;;0.98;0.68;;;;;;;;;;4566940;28;20044;-59
2022/07/29 07:47:23;;;;;;;1.15;0.65;;;;;;;;;;4563788;28;20037;-58
2022/07/29 07:49:33;;;;;;;0.98;0.70;;;;;;;;;;4563931;28;20875;-59
2022/07/29 07:51:44;;;;;;;1.25;0.80;;;;;;;;;;4563659;28;20220;-58
2022/07/29 07:53:54;;;;;;;1.70;0.70;;;;;;;;;;4564294;28;20107;-59
2022/07/29 07:56:06;;;;;;;1.48;0.90;;;;;;;;;;4562912;28;20313;-58
2022/07/29 07:58:16;;;;;;;1.17;0.80;;;;;;;;;;4564037;28;20117;-58
2022/07/29 08:00:27;;;;;;;1.30;0.80;;;;;;;;;;4556235;28;20102;-58
2022/07/29 08:02:38;;;;;;;1.67;0.90;;;;;;;;;;4565184;28;20044;-59
2022/07/29 08:04:49;;;;;;;0.90;0.80;;;;;;;;;;4564284;28;20602;-59
2022/07/29 08:07:00;;;;;;;1.77;0.93;;;;;;;;;;4563924;28;20382;-58
2022/07/29 08:09:11;;;;;;;1.08;0.70;;;;;;;;;;4562610;28;20036;-58
2022/07/29 08:11:21;;;;;;;1.58;0.85;;;;;;;;;;4564204;28;20032;-59
2022/07/29 08:13:32;;;;;;;1.63;0.90;;;;;;;;;;4564270;28;20261;-58
2022/07/29 08:15:44;;;;;;;1.00;0.90;;;;;;;;;;4564020;28;20614;-58
2022/07/29 08:17:55;;;;;;;1.20;0.80;;;;;;;;;;4564784;28;20643;-58
2022/07/29 08:20:06;;;;;;;1.02;0.85;;;;;;;;;;4565658;28;20125;-58
2022/07/29 08:22:16;;;;;;;1.73;0.90;;;;;;;;;;4556477;28;20896;-58
2022/07/29 08:26:56;;;;;;;1.55;0.80;;;;;;;;;;4564212;28;20825;-58
2022/07/29 08:29:06;;;;;;;1.83;0.80;;;;;;;;;;4562577;27;20035;-58
2022/07/29 08:31:17;;;;;;;1.27;0.70;;;;;;;;;;4562863;27;20135;-58
2022/07/29 08:33:28;;;;;;;2.00;0.80;;;;;;;;;;4564385;28;20034;-58
2022/07/29 08:35:39;;;;;;;1.30;0.88;;;;;;;;;;4563807;28;20043;-59
2022/07/29 08:37:50;;;;;;;2.13;0.80;;;;;;;;;;4550128;28;20040;-58
2022/07/29 08:40:00;;;;;;;0.95;0.70;;;;;;;;;;4562757;28;20024;-58
2022/07/29 08:42:11;;;;;;;1.33;1.00;;;;;;;;;;4565946;28;20036;-58
2022/07/29 08:44:21;;;;;;;1.00;0.70;;;;;;;;;;4567999;28;20119;-57
2022/07/29 08:46:32;;;;;;;0.95;0.77;;;;;;;;;;4562673;28;20043;-58
2022/07/29 08:48:45;;;;;;;1.10;0.80;;;;;;;;;;4528106;28;33199;-58
2022/07/29 08:50:56;;;;;;;0.75;0.70;;;;;;;;;;4547520;28;20037;-58
2022/07/29 08:53:08;;;;;;;1.63;0.82;;;;;;;;;;4545732;28;20509;-58
2022/07/29 08:55:19;;;;;;;1.13;0.70;;;;;;;;;;4528771;28;20048;-59
2022/07/29 08:57:30;;;;;;;2.15;0.88;;;;;;;;;;4528037;28;20581;-58
2022/07/29 08:59:42;;;;;;;0.93;0.70;;;;;;;;;;4530279;28;20065;-58
2022/07/29 09:01:53;;;;;;;1.15;0.75;;;;;;;;;;4544438;28;20649;-58
2022/07/29 09:04:06;;;;;;;1.40;0.80;;;;;;;;;;4545163;28;20104;-59
2022/07/29 09:06:18;;;;;;;2.00;0.70;;;;;;;;;;4547483;28;20029;-57
2022/07/29 09:08:31;;;;;;;1.17;0.90;;;;;;;;;;4533015;28;20410;-58
2022/07/29 09:10:42;;;;;;;0.88;0.80;;;;;;;;;;4529704;28;20022;-58
2022/07/29 09:12:55;;;;;;;0.80;0.80;;;;;;;;;;4544642;28;20037;-60
2022/07/29 09:15:06;;;;;;;1.70;0.80;;;;;;;;;;4538104;28;20135;-58
2022/07/29 09:17:17;;;;;;;1.02;0.75;;;;;;;;;;4545607;28;20029;-58
2022/07/29 09:19:34;;;;;;;1.58;0.80;;;;;;;;;;4535141;28;20037;-57
2022/07/29 09:22:00;;;;;;;1.65;1.08;;;;;;;;;;4546659;28;20032;-59
2022/07/29 09:24:12;;;;;;;1.10;0.80;;;;;;;;;;4529987;28;20148;-58
2022/07/29 09:26:28;;;;;;;1.60;0.98;;;;;;;;;;4544311;28;20079;-60
2022/07/29 09:28:41;;;;;;;1.27;0.90;;;;;;;;;;4514028;28;20118;-59
2022/07/29 09:30:58;;;;;;;1.40;0.85;;;;;;;;;;4544823;28;20037;-58
2022/07/29 09:33:10;;;;;;;1.08;0.80;;;;;;;;;;4531596;28;20548;-58
2022/07/29 09:35:23;;;;;;;3.10;0.90;;;;;;;;;;4546135;28;20036;-59
2022/07/29 09:37:33;;;;;;;0.93;0.70;;;;;;;;;;4531963;28;20747;-59
2022/07/29 09:39:45;;;;;;;1.10;0.88;;;;;;;;;;4546216;28;20115;-58
2022/07/29 09:41:57;;;;;;;1.67;0.90;;;;;;;;;;4549234;28;20479;-59
2022/07/29 09:44:08;;;;;;;1.45;0.90;;;;;;;;;;4548855;28;20060;-60
2022/07/29 09:46:18;;;;;;;1.00;0.73;;;;;;;;;;4530272;28;20044;-63
2022/07/29 09:48:29;;;;;;;1.20;0.90;;;;;;;;;;4532208;28;20056;-58
2022/07/29 09:50:40;;;;;;;1.63;1.05;;;;;;;;;;4530751;28;20132;-58
2022/07/29 09:52:53;;;;;;;2.22;0.90;;;;;;;;;;4548711;28;20024;-58
2022/07/29 09:55:07;;;;;;;2.42;1.00;;;;;;;;;;4532447;28;20105;-55
2022/07/29 09:57:26;;;;;;;1.92;1.00;;;;;;;;;;4529578;28;20626;-58
2022/07/29 09:59:36;;;;;;;1.77;0.95;;;;;;;;;;4548106;28;20486;-57
2022/07/29 10:01:49;;;;;;;1.75;0.98;;;;;;;;;;4548029;28;20369;-58
2022/07/29 10:03:59;;;;;;;2.35;1.13;;;;;;;;;;4547378;28;20740;-57
2022/07/29 10:06:11;;;;;;;1.50;0.93;;;;;;;;;;4529053;28;20025;-57
2022/07/29 10:08:25;;;;;;;2.42;1.25;;;;;;;;;;4530465;28;20732;-57
2022/07/29 10:10:44;;;;;;;2.42;0.80;;;;;;;;;;4548973;28;20198;-58
2022/07/29 10:12:59;;;;;;;1.95;0.93;;;;;;;;;;4549569;28;20624;-58
2022/07/29 10:15:09;;;;;;;0.85;0.82;;;;;;;;;;4534744;28;20048;-58
2022/07/29 10:17:20;;;;;;;1.33;1.00;;;;;;;;;;4548370;28;20024;-58
2022/07/29 10:19:31;;;;;;;1.38;0.82;;;;;;;;;;4530582;28;20034;-59
2022/07/29 10:21:44;;;;;;;2.38;1.02;;;;;;;;;;4530459;28;20436;-57
2022/07/29 10:23:55;;;;;;;1.70;1.08;;;;;;;;;;4528414;28;20825;-57
2022/07/29 10:26:06;;;;;;;1.92;1.17;;;;;;;;;;4527536;28;20906;-58
2022/07/29 10:28:16;;;;;;;1.77;0.98;;;;;;;;;;4545597;28;20131;-58
2022/07/29 10:30:27;;;;;;;1.30;1.05;;;;;;;;;;4548260;28;20243;-58
2022/07/29 10:32:58;;;;;;;2.47;1.02;;;;;;;;;;4547860;28;20048;-58
2022/07/29 10:35:21;;;;;;;2.13;1.30;;;;;;;;;;4547002;28;21351;-58
2022/07/29 10:37:52;;;;;;;1.63;0.98;;;;;;;;;;4530760;28;20029;-57
2022/07/29 10:42:43;;;;;;;0.90;0.90;;;;;;;;;;4536114;28;20100;-58
2022/07/29 10:44:54;;;;;;;1.83;0.90;;;;;;;;;;4529236;28;20470;-58
2022/07/29 10:47:04;;;;;;;2.00;1.00;;;;;;;;;;4528642;28;20064;-57
2022/07/29 10:49:27;;;;;;;1.83;1.00;;;;;;;;;;4546755;28;20048;-58
2022/07/29 10:51:57;;;;;;;2.90;1.25;;;;;;;;;;4546653;28;20043;-57
2022/07/29 10:54:08;;;;;;;1.83;1.10;;;;;;;;;;4528450;28;20604;-58
2022/07/29 10:56:27;;;;;;;1.10;1.00;;;;;;;;;;4545022;28;20032;-57
2022/07/29 10:58:38;;;;;;;1.60;1.00;;;;;;;;;;4547138;28;20041;-57
2022/07/29 11:00:50;;;;;;;1.13;0.90;;;;;;;;;;4529792;28;20502;-57
2022/07/29 11:03:01;;;;;;;1.17;1.00;;;;;;;;;;4547706;28;20033;-57
2022/07/29 11:05:19;;;;;;;1.85;1.25;;;;;;;;;;4546697;28;20028;-56
2022/07/29 11:07:30;;;;;;;3.50;1.38;;;;;;;;;;4532788;28;20239;-57
2022/07/29 11:09:40;;;;;;;2.30;1.20;;;;;;;;;;4533325;28;20083;-58
2022/07/29 11:11:51;;;;;;;1.75;1.05;;;;;;;;;;4529188;28;20580;-58
2022/07/29 11:14:01;;;;;;;1.80;1.20;;;;;;;;;;4547397;28;20040;-57
2022/07/29 11:16:12;;;;;;;2.22;1.02;;;;;;;;;;4547794;28;20536;-57
2022/07/29 11:18:23;;;;;;;2.17;1.10;;;;;;;;;;4533952;28;20139;-57
2022/07/29 11:20:44;;;;;;;2.35;1.20;;;;;;;;;;4548911;28;20111;-57
2022/07/29 11:22:54;;;;;;;1.50;1.10;;;;;;;;;;4545855;28;20962;-57
2022/07/29 11:25:16;;;;;;;1.85;1.13;;;;;;;;;;4546113;28;20040;-57
2022/07/29 11:27:30;;;;;;;1.63;1.20;;;;;;;;;;4533218;28;20545;-57
2022/07/29 11:29:55;;;;;;;2.10;1.30;;;;;;;;;;4547187;28;20113;-57
2022/07/29 11:32:11;;;;;;;2.50;1.20;;;;;;;;;;4547552;28;20043;-57
2022/07/29 11:34:27;;;;;;;2.17;1.20;;;;;;;;;;4547390;28;20865;-57
2022/07/29 11:37:06;;;;;;;1.55;1.25;;;;;;;;;;4545433;28;20037;-57
2022/07/29 11:39:26;;;;;;;1.50;1.15;;;;;;;;;;4546981;28;20532;-57
2022/07/29 11:41:38;;;;;;;2.80;1.10;;;;;;;;;;4545640;28;21282;-58
2022/07/29 11:43:57;;;;;;;1.67;1.10;;;;;;;;;;4547656;28;20029;-57
2022/07/29 11:46:07;;;;;;;1.52;1.30;;;;;;;;;;4545609;28;20597;-58
2022/07/29 11:48:18;;;;;;;2.05;1.15;;;;;;;;;;4547486;28;20044;-58
2022/07/29 11:50:35;;;;;;;1.58;1.20;;;;;;;;;;4545796;28;20037;-58
2022/07/29 11:52:46;;;;;;;1.92;1.10;;;;;;;;;;4531157;28;20064;-58
2022/07/29 11:54:58;;;;;;;2.30;1.30;;;;;;;;;;4545855;28;21235;-55
2022/07/29 11:57:08;;;;;;;1.73;1.20;;;;;;;;;;4528255;28;20041;-57
2022/07/29 11:59:20;;;;;;;2.67;1.30;;;;;;;;;;4538873;28;20033;-58
2022/07/29 12:01:31;;;;;;;1.75;1.20;;;;;;;;;;4529332;28;20229;-57
2022/07/29 12:03:42;;;;;;;1.45;1.10;;;;;;;;;;4528423;28;20034;-57
2022/07/29 12:05:52;;;;;;;1.88;1.13;;;;;;;;;;4546697;28;20414;-56
2022/07/29 12:08:07;;;;;;;1.58;1.00;;;;;;;;;;4547996;28;20033;-57
2022/07/29 12:10:17;;;;;;;2.30;1.30;;;;;;;;;;4548773;28;20140;-57
2022/07/29 12:12:27;;;;;;;2.10;1.48;;;;;;;;;;4546591;28;20120;-57
2022/07/29 12:14:44;;;;;;;1.13;1.00;;;;;;;;;;4528167;28;20301;-57
2022/07/29 12:16:55;;;;;;;;;;;;;;;;;;4547764;28;20035;-57
2022/07/29 12:19:05;;;;;;;1.33;1.02;;;;;;;;;;4547303;28;20529;-56
2022/07/29 12:21:16;;;;;;;1.63;1.20;;;;;;;;;;4545176;28;20078;-57
2022/07/29 12:23:26;;;;;;;3.45;1.20;;;;;;;;;;4528739;28;20477;-57
2022/07/29 12:25:37;;;;;;;2.40;1.30;;;;;;;;;;4547520;28;20119;-57
2022/07/29 12:27:57;;;;;;;1.65;1.20;;;;;;;;;;4548392;28;20048;-57
2022/07/29 12:30:14;;;;;;;1.25;1.02;;;;;;;;;;4533414;28;20075;-57
2022/07/29 12:32:32;;;;;;;2.80;1.30;;;;;;;;;;4538852;28;20035;-57
2022/07/29 12:34:42;;;;;;;1.73;1.27;;;;;;;;;;4546557;28;20747;-56
2022/07/29 12:36:53;;;;;;;1.17;1.08;;;;;;;;;;4546665;28;20040;-58
2022/07/29 12:39:04;;;;;;;1.40;1.20;;;;;;;;;;4527576;28;20116;-57
2022/07/29 12:41:14;;;;;;;1.98;1.38;;;;;;;;;;4531090;28;20871;-57
2022/07/29 12:43:25;;;;;;;2.65;1.20;;;;;;;;;;4546848;28;20039;-58
2022/07/29 12:45:37;;;;;;;1.63;1.30;;;;;;;;;;4547035;28;20025;-57
2022/07/29 12:47:51;;;;;;;2.17;1.27;;;;;;;;;;4546592;28;20048;-58
2022/07/29 12:50:17;;;;;;;2.10;1.48;;;;;;;;;;4545672;28;20033;-57
2022/07/29 12:52:30;;;;;;;2.13;1.40;;;;;;;;;;4546856;28;20043;-57
2022/07/29 12:54:46;;;;;;;1.80;1.40;;;;;;;;;;4527665;28;20038;-57
2022/07/29 12:57:00;;;;;;;2.15;1.33;;;;;;;;;;4546769;28;20612;-58
2022/07/29 12:59:14;;;;;;;1.98;1.20;;;;;;;;;;4546205;28;20160;-58
2022/07/29 13:01:27;;;;;;;2.55;1.20;;;;;;;;;;4532931;28;20036;-57
2022/07/29 13:03:51;;;;;;;1.88;1.33;;;;;;;;;;4544917;28;20033;-57
2022/07/29 13:06:01;;;;;;;2.15;1.50;;;;;;;;;;4527221;28;20041;-57
2022/07/29 13:08:18;;;;;;;3.00;1.60;;;;;;;;;;4545128;28;20044;-58
2022/07/29 13:10:29;;;;;;;;;;;;;;;;;;4546953;28;20120;-57
2022/07/29 13:12:40;;;;;;;1.88;1.60;;;;;;;;;;4529124;28;20036;-57
2022/07/29 13:14:51;;;;;;;1.92;1.60;;;;;;;;;;4533340;28;20524;-59
2022/07/29 13:17:03;;;;;;;2.08;1.60;;;;;;;;;;4548385;28;20060;-57
2022/07/29 13:19:14;;;;;;;1.63;1.42;;;;;;;;;;4538790;28;20145;-59